This is the latest recevied weather packets stored in our database for station/object WT9M-8. If no packets are shown the sender has not sent any weather packets the latest 10 day(s).
| Time | Temp. | Humidity | Pressure | Rain* | Wind** | Luminosity | Snow |
|---|---|---|---|---|---|---|---|
| 1777475421 | 13.89° C | 54% | 1014.9 hPa | 0 mm | - | 399 W/m² | - |
| 1777473626 | 13.33° C | 53% | 1014.9 hPa | 0 mm | - | 322 W/m² | - |
| 1777472436 | 12.78° C | 58% | 1014.9 hPa | 0 mm | - | 289 W/m² | - |
| 1777459236 | 6.67° C | 77% | 1015.1 hPa | 0.25 mm | - | 0 W/m² | - |
| 1777455647 | 7.22° C | 74% | 1015 hPa | 0 mm | - | 0 W/m² | - |
| 1777450832 | 8.33° C | 72% | 1014.4 hPa | 0 mm | - | 0 W/m² | - |
| 1777441824 | 8.89° C | 71% | 1013.5 hPa | 0 mm | - | 0 W/m² | - |
| 1777440635 | 8.89° C | 70% | 1013.8 hPa | 0 mm | - | 0 W/m² | - |
| 1777432833 | 10.56° C | 68% | 1013.6 hPa | 0 mm | - | 0 W/m² | - |
| 1777428619 | 8.89° C | 74% | 1013.9 hPa | 0 mm | - | 0 W/m² | - |
| 1777426845 | 10° C | 70% | 1013.8 hPa | 0 mm | - | 0 W/m² | - |
| 1777422632 | 13.89° C | 54% | 1012.8 hPa | 0 mm | - | 11 W/m² | - |
| 1777421423 | 14.44° C | 51% | 1012.8 hPa | 0 mm | - | 23 W/m² | - |
| 1777419628 | 16.11° C | 51% | 1012.8 hPa | 0 mm | - | 43 W/m² | - |
| 1777416020 | 17.22° C | 45% | 1012.1 hPa | 0 mm | - | 99 W/m² | - |
| 1777415455 | 17.78° C | 45% | 1012.2 hPa | 0 mm | - | 104 W/m² | - |
| 1777404023 | 20° C | 46% | 1013 hPa | 0 mm | - | 681 W/m² | - |
| 1777403419 | 18.89° C | 46% | 1013.4 hPa | 0 mm | - | 689 W/m² | - |
| 1777402249 | 17.78° C | 50% | 1013.2 hPa | 0 mm | - | 646 W/m² | - |
| 1777401624 | 16.67° C | 51% | 1013.4 hPa | 0 mm | - | 348 W/m² | - |
| 1777399830 | 17.78° C | 51% | 1013.1 hPa | 0 mm | - | 243 W/m² | - |
| 1777396826 | 18.89° C | 52% | 1013 hPa | 0 mm | - | 555 W/m² | - |
| 1777395032 | 17.78° C | 55% | 1012.8 hPa | 0 mm | - | 498 W/m² | - |
| 1777393218 | 17.22° C | 58% | 1012.7 hPa | 0 mm | - | 546 W/m² | - |
| 1777390818 | 15° C | 63% | 1012.6 hPa | 0 mm | - | 441 W/m² | - |
* Rain latest hour (hover to see other rain measurements)
** Current wind speed in m/s (hover to see current wind gust speed)